createdAt,value
2019-02-22T00:00:49.098Z,1017.79
2019-02-22T00:01:49.079Z,1017.89
2019-02-22T00:02:49.075Z,1017.85
2019-02-22T00:03:49.061Z,1017.82
2019-02-22T00:04:49.053Z,1017.90
2019-02-22T00:05:49.059Z,1017.91
2019-02-22T00:06:49.019Z,1017.94
2019-02-22T00:07:49.030Z,1017.94
2019-02-22T00:08:49.009Z,1017.88
2019-02-22T00:09:49.848Z,1017.98
2019-02-22T00:10:48.981Z,1018.01
2019-02-22T00:11:48.975Z,1017.97
2019-02-22T00:12:48.955Z,1018.04
2019-02-22T00:13:48.951Z,1018.09
2019-02-22T00:14:48.941Z,1018.08
2019-02-22T00:15:48.931Z,1018.11
2019-02-22T00:16:48.925Z,1018.06
2019-02-22T00:17:48.911Z,1018.12
2019-02-22T00:18:48.915Z,1018.17
2019-02-22T00:19:48.893Z,1018.15
2019-02-22T00:20:48.884Z,1018.16
2019-02-22T00:21:48.869Z,1018.21
2019-02-22T00:22:48.849Z,1018.22
2019-02-22T00:23:48.844Z,1018.25
2019-02-22T00:24:48.829Z,1018.27
2019-02-22T00:25:48.828Z,1018.25
2019-02-22T00:26:48.813Z,1018.27
2019-02-22T00:27:48.808Z,1018.30
2019-02-22T00:28:48.787Z,1018.34
2019-02-22T00:29:48.771Z,1018.36
2019-02-22T00:30:48.770Z,1018.33
2019-02-22T00:31:48.764Z,1018.40
2019-02-22T00:32:48.767Z,1018.37
2019-02-22T00:33:48.739Z,1018.35
2019-02-22T00:34:48.725Z,1018.45
2019-02-22T00:35:48.706Z,1018.51
2019-02-22T00:36:48.728Z,1018.41
2019-02-22T00:37:48.703Z,1018.49
2019-02-22T00:38:48.708Z,1018.60
2019-02-22T00:39:48.661Z,1018.50
2019-02-22T00:40:48.649Z,1018.58
2019-02-22T00:41:48.638Z,1018.52
2019-02-22T00:42:50.333Z,1018.62
2019-02-22T00:43:48.635Z,1018.66
2019-02-22T00:44:48.627Z,1018.67
2019-02-22T00:45:48.595Z,1018.64
2019-02-22T00:46:48.593Z,1018.64
2019-02-22T00:47:48.577Z,1018.67
2019-02-22T00:48:48.572Z,1018.64
2019-02-22T00:49:48.559Z,1018.65
2019-02-22T00:50:48.541Z,1018.63
2019-02-22T00:51:48.529Z,1018.63
2019-02-22T00:52:48.525Z,1018.68
2019-02-22T00:53:48.517Z,1018.68
2019-02-22T00:54:48.521Z,1018.74
2019-02-22T00:55:48.493Z,1018.68
2019-02-22T00:56:48.483Z,1018.70
2019-02-22T00:57:48.472Z,1018.67
2019-02-22T00:58:48.460Z,1018.65
2019-02-22T00:59:48.449Z,1018.73
2019-02-22T01:00:48.451Z,1018.74
2019-02-22T01:01:48.437Z,1018.71
2019-02-22T01:02:48.413Z,1018.78
2019-02-22T01:03:48.400Z,1018.84
2019-02-22T01:04:48.397Z,1018.80
2019-02-22T01:05:48.379Z,1018.84
2019-02-22T01:06:48.375Z,1018.84
2019-02-22T01:07:48.356Z,1018.85
2019-02-22T01:08:48.347Z,1018.86
2019-02-22T01:09:48.338Z,1018.91
2019-02-22T01:10:48.326Z,1018.91
2019-02-22T01:11:48.323Z,1018.97
2019-02-22T01:12:48.329Z,1018.95
2019-02-22T01:13:48.291Z,1019.00
2019-02-22T01:14:48.282Z,1019.00
2019-02-22T01:15:48.317Z,1018.98
2019-02-22T01:16:48.261Z,1019.02
2019-02-22T01:17:48.266Z,1019.04
2019-02-22T01:18:48.239Z,1018.98
2019-02-22T01:19:48.225Z,1019.08
2019-02-22T01:20:54.427Z,1019.11
2019-02-22T01:21:49.218Z,1019.12
2019-02-22T01:22:48.197Z,1019.19
2019-02-22T01:23:48.197Z,1019.13
2019-02-22T01:24:48.169Z,1019.18
2019-02-22T01:25:48.162Z,1019.18
2019-02-22T01:26:48.150Z,1019.20
2019-02-22T01:27:48.137Z,1019.16
2019-02-22T01:28:48.138Z,1019.24
2019-02-22T01:29:48.112Z,1019.24
2019-02-22T01:30:48.107Z,1019.29
2019-02-22T01:31:48.089Z,1019.21
2019-02-22T01:32:48.087Z,1019.32
2019-02-22T01:33:48.075Z,1019.31
2019-02-22T01:34:48.079Z,1019.30
2019-02-22T01:35:48.071Z,1019.34
2019-02-22T01:36:48.045Z,1019.41
2019-02-22T01:37:48.025Z,1019.41
2019-02-22T01:38:48.018Z,1019.48
2019-02-22T01:39:48.014Z,1019.49
2019-02-22T01:40:48.025Z,1019.53
2019-02-22T01:41:47.985Z,1019.54
2019-02-22T01:42:48.016Z,1019.58
2019-02-22T01:43:47.980Z,1019.58
2019-02-22T01:44:47.977Z,1019.57
2019-02-22T01:45:47.960Z,1019.58
2019-02-22T01:46:47.950Z,1019.51
2019-02-22T01:47:47.929Z,1019.60
2019-02-22T01:48:47.920Z,1019.54
2019-02-22T01:49:47.904Z,1019.58
2019-02-22T01:50:47.887Z,1019.62
2019-02-22T01:51:47.885Z,1019.60
2019-02-22T01:52:47.886Z,1019.55
2019-02-22T01:53:47.871Z,1019.61
2019-02-22T01:54:47.847Z,1019.63
2019-02-22T01:55:47.868Z,1019.62
2019-02-22T01:56:47.827Z,1019.58
2019-02-22T01:57:47.821Z,1019.67
2019-02-22T01:58:49.006Z,1019.64
2019-02-22T01:59:47.793Z,1019.72
2019-02-22T02:00:47.781Z,1019.72
2019-02-22T02:01:47.777Z,1019.71
2019-02-22T02:02:47.768Z,1019.75
2019-02-22T02:03:47.783Z,1019.82
2019-02-22T02:04:47.741Z,1019.79
2019-02-22T02:05:47.732Z,1019.76
2019-02-22T02:06:47.737Z,1019.84
2019-02-22T02:07:47.711Z,1019.74
2019-02-22T02:08:47.697Z,1019.87
2019-02-22T02:09:47.734Z,1019.87
2019-02-22T02:10:54.184Z,1019.88
2019-02-22T02:11:48.664Z,1019.91
2019-02-22T02:12:47.662Z,1019.92
2019-02-22T02:13:47.647Z,1019.91
2019-02-22T02:14:47.651Z,1019.95
2019-02-22T02:15:47.624Z,1019.97
2019-02-22T02:16:47.635Z,1019.99
2019-02-22T02:17:47.606Z,1019.99
2019-02-22T02:18:47.595Z,1020.00
2019-02-22T02:19:47.584Z,1019.96
2019-02-22T02:20:47.589Z,1020.08
2019-02-22T02:21:47.559Z,1020.03
2019-02-22T02:22:47.549Z,1019.99
2019-02-22T02:23:47.533Z,1020.10
2019-02-22T02:24:47.527Z,1020.08
2019-02-22T02:25:47.519Z,1020.05
2019-02-22T02:26:47.504Z,1020.11
2019-02-22T02:27:47.505Z,1020.09
2019-02-22T02:28:47.481Z,1020.14
2019-02-22T02:29:47.493Z,1020.13
2019-02-22T02:30:47.461Z,1020.12
2019-02-22T02:31:47.453Z,1020.13
2019-02-22T02:32:47.439Z,1020.18
2019-02-22T02:33:47.431Z,1020.16
2019-02-22T02:34:47.487Z,1020.21
2019-02-22T02:35:47.417Z,1020.18
2019-02-22T02:36:47.401Z,1020.27
2019-02-22T02:37:47.417Z,1020.24
2019-02-22T02:38:47.379Z,1020.28
2019-02-22T02:39:47.392Z,1020.30
2019-02-22T02:40:47.373Z,1020.24
2019-02-22T02:41:47.354Z,1020.33
2019-02-22T02:42:47.361Z,1020.34
2019-02-22T02:43:47.324Z,1020.37
2019-02-22T02:44:47.320Z,1020.37
2019-02-22T02:45:47.305Z,1020.37
2019-02-22T02:46:47.303Z,1020.42
2019-02-22T02:47:47.284Z,1020.47
2019-02-22T02:48:47.279Z,1020.42
2019-02-22T02:49:47.260Z,1020.49
2019-02-22T02:50:47.250Z,1020.51
2019-02-22T02:51:47.250Z,1020.54
2019-02-22T02:52:47.296Z,1020.48
2019-02-22T02:53:47.270Z,1020.56
2019-02-22T02:54:47.216Z,1020.57
2019-02-22T02:55:47.209Z,1020.55
2019-02-22T02:56:47.185Z,1020.58
2019-02-22T02:57:47.176Z,1020.68
2019-02-22T02:58:47.166Z,1020.61
2019-02-22T02:59:47.168Z,1020.66
2019-02-22T03:00:47.149Z,1020.61
2019-02-22T03:01:47.130Z,1020.70
2019-02-22T03:02:47.119Z,1020.74
2019-02-22T03:03:47.119Z,1020.71
2019-02-22T03:04:47.111Z,1020.79
2019-02-22T03:05:47.098Z,1020.76
2019-02-22T03:06:47.076Z,1020.83
2019-02-22T03:07:47.069Z,1020.81
2019-02-22T03:08:47.058Z,1020.81
2019-02-22T03:09:47.052Z,1020.84
2019-02-22T03:10:47.041Z,1020.79
2019-02-22T03:11:47.030Z,1020.84
2019-02-22T03:12:47.017Z,1020.80
2019-02-22T03:13:47.003Z,1020.83
2019-02-22T03:14:46.997Z,1020.80
2019-02-22T03:15:47.007Z,1020.78
2019-02-22T03:16:47.061Z,1020.84
2019-02-22T03:17:46.969Z,1020.86
2019-02-22T03:18:46.951Z,1020.90
2019-02-22T03:19:46.949Z,1020.93
2019-02-22T03:20:46.934Z,1020.96
2019-02-22T03:21:46.933Z,1020.94
2019-02-22T03:22:46.912Z,1020.93
2019-02-22T03:23:46.909Z,1020.94
2019-02-22T03:24:46.895Z,1021.03
2019-02-22T03:25:46.880Z,1021.01
2019-02-22T03:26:46.869Z,1021.03
2019-02-22T03:27:46.871Z,1021.03
2019-02-22T03:28:46.868Z,1021.07
2019-02-22T03:29:46.866Z,1021.10
2019-02-22T03:30:46.842Z,1021.05
2019-02-22T03:31:46.813Z,1021.08
2019-02-22T03:32:46.819Z,1021.11
2019-02-22T03:33:46.813Z,1021.09
2019-02-22T03:34:46.791Z,1021.14
2019-02-22T03:35:46.771Z,1021.11
2019-02-22T03:36:46.759Z,1021.07
2019-02-22T03:37:46.749Z,1021.12
2019-02-22T03:38:46.767Z,1021.09
2019-02-22T03:39:46.734Z,1021.15
2019-02-22T03:40:46.727Z,1021.12
2019-02-22T03:41:46.715Z,1021.14
2019-02-22T03:42:46.691Z,1021.21
2019-02-22T03:43:46.687Z,1021.17
2019-02-22T03:44:46.679Z,1021.21
2019-02-22T03:45:46.674Z,1021.21
2019-02-22T03:46:46.674Z,1021.30
2019-02-22T03:47:46.678Z,1021.27
2019-02-22T03:48:46.640Z,1021.31
2019-02-22T03:49:46.638Z,1021.35
2019-02-22T03:50:46.634Z,1021.37
2019-02-22T03:51:46.611Z,1021.39
2019-02-22T03:52:46.590Z,1021.36
2019-02-22T03:53:46.585Z,1021.43
2019-02-22T03:54:46.571Z,1021.43
2019-02-22T03:55:46.557Z,1021.42
2019-02-22T03:56:46.556Z,1021.46
2019-02-22T03:57:46.547Z,1021.46
2019-02-22T03:58:46.528Z,1021.55
2019-02-22T03:59:46.515Z,1021.55
2019-02-22T04:00:46.512Z,1021.56
2019-02-22T04:01:46.517Z,1021.57
2019-02-22T04:02:46.493Z,1021.61
2019-02-22T04:03:46.474Z,1021.60
2019-02-22T04:04:46.469Z,1021.62
2019-02-22T04:05:46.451Z,1021.64
2019-02-22T04:06:46.441Z,1021.72
2019-02-22T04:07:46.432Z,1021.72
2019-02-22T04:08:46.422Z,1021.77
2019-02-22T04:09:46.414Z,1021.79
2019-02-22T04:10:46.404Z,1021.81
2019-02-22T04:11:46.654Z,1021.83
2019-02-22T04:12:46.400Z,1021.90
2019-02-22T04:13:46.368Z,1021.91
2019-02-22T04:14:46.377Z,1021.93
2019-02-22T04:15:46.341Z,1021.97
2019-02-22T04:16:46.331Z,1021.97
2019-02-22T04:17:46.325Z,1021.93
2019-02-22T04:18:46.315Z,1021.98
2019-02-22T04:19:46.310Z,1022.03
2019-02-22T04:20:46.297Z,1022.04
2019-02-22T04:21:46.279Z,1022.04
2019-02-22T04:22:46.273Z,1022.09
2019-02-22T04:23:46.265Z,1022.09
2019-02-22T04:24:46.256Z,1022.15
2019-02-22T04:25:46.238Z,1022.12
2019-02-22T04:26:46.224Z,1022.19
2019-02-22T04:27:46.217Z,1022.23
2019-02-22T04:28:46.214Z,1022.29
2019-02-22T04:29:46.195Z,1022.30
2019-02-22T04:30:46.187Z,1022.25
2019-02-22T04:31:46.182Z,1022.36
2019-02-22T04:32:46.163Z,1022.36
2019-02-22T04:33:46.159Z,1022.42
2019-02-22T04:34:46.148Z,1022.43
2019-02-22T04:35:46.132Z,1022.43
2019-02-22T04:36:46.124Z,1022.43
2019-02-22T04:37:46.134Z,1022.49
2019-02-22T04:38:46.113Z,1022.51
2019-02-22T04:39:46.088Z,1022.63
2019-02-22T04:40:46.083Z,1022.64
2019-02-22T04:41:57.350Z,1022.65
2019-02-22T04:42:47.054Z,1022.69
2019-02-22T04:43:46.040Z,1022.76
2019-02-22T04:44:46.045Z,1022.76
2019-02-22T04:45:46.023Z,1022.76
2019-02-22T04:46:46.019Z,1022.81
2019-02-22T04:47:46.005Z,1022.79
2019-02-22T04:48:45.994Z,1022.77
2019-02-22T04:49:45.985Z,1022.82
2019-02-22T04:50:45.975Z,1022.84
2019-02-22T04:51:45.960Z,1022.87
2019-02-22T04:52:45.943Z,1022.86
2019-02-22T04:53:45.944Z,1022.86
2019-02-22T04:54:45.925Z,1022.92
2019-02-22T04:55:45.919Z,1022.98
2019-02-22T04:56:45.914Z,1023.03
2019-02-22T04:57:45.896Z,1023.01
2019-02-22T04:58:45.890Z,1023.15
2019-02-22T04:59:45.871Z,1023.14
2019-02-22T05:00:45.856Z,1023.11
2019-02-22T05:01:45.849Z,1023.16
2019-02-22T05:02:45.833Z,1023.30
2019-02-22T05:03:45.840Z,1023.31
2019-02-22T05:04:45.819Z,1023.29
2019-02-22T05:05:45.819Z,1023.31
2019-02-22T05:06:45.799Z,1023.43
2019-02-22T05:07:45.834Z,1023.41
2019-02-22T05:08:45.774Z,1023.43
2019-02-22T05:09:45.767Z,1023.50
2019-02-22T05:10:45.757Z,1023.46
2019-02-22T05:12:16.436Z,1023.55
2019-02-22T05:13:16.415Z,1023.65
2019-02-22T05:14:47.156Z,1023.58
2019-02-22T05:15:47.128Z,1023.68
2019-02-22T05:17:17.791Z,1023.79
2019-02-22T05:18:17.783Z,1023.80
2019-02-22T05:19:17.765Z,1023.82
2019-02-22T05:20:17.761Z,1023.83
2019-02-22T05:21:17.751Z,1023.88
2019-02-22T05:22:17.729Z,1023.85
2019-02-22T05:23:17.729Z,1023.94
2019-02-22T05:24:17.712Z,1023.94
2019-02-22T05:25:17.715Z,1024.01
2019-02-22T05:26:17.685Z,1024.02
2019-02-22T05:27:17.681Z,1024.08
2019-02-22T05:28:17.663Z,1024.08
2019-02-22T05:29:17.654Z,1024.14
2019-02-22T05:30:17.652Z,1024.20
2019-02-22T05:31:17.639Z,1024.23
2019-02-22T05:32:17.636Z,1024.28
2019-02-22T05:33:17.624Z,1024.37
2019-02-22T05:34:17.602Z,1024.39
2019-02-22T05:35:17.603Z,1024.40
2019-02-22T05:36:17.584Z,1024.43
2019-02-22T05:37:17.580Z,1024.51
2019-02-22T05:38:17.567Z,1024.51
2019-02-22T05:39:19.517Z,1024.56
2019-02-22T05:40:17.537Z,1024.57
2019-02-22T05:41:17.531Z,1024.62
2019-02-22T05:42:22.902Z,1024.62
2019-02-22T05:43:18.508Z,1024.66
2019-02-22T05:44:17.498Z,1024.65
2019-02-22T05:45:17.480Z,1024.61
2019-02-22T05:46:17.548Z,1024.73
2019-02-22T05:47:17.470Z,1024.64
2019-02-22T05:48:17.453Z,1024.79
2019-02-22T05:49:17.448Z,1024.80
2019-02-22T05:50:17.434Z,1024.80
2019-02-22T05:51:17.423Z,1024.78
2019-02-22T05:52:17.420Z,1024.85
2019-02-22T05:53:17.404Z,1024.89
2019-02-22T05:54:17.395Z,1024.92
2019-02-22T05:55:17.380Z,1024.89
2019-02-22T05:56:17.378Z,1024.93
2019-02-22T05:57:17.358Z,1024.97
2019-02-22T05:58:17.358Z,1025.05
2019-02-22T05:59:17.342Z,1024.99
2019-02-22T06:00:17.337Z,1025.11
2019-02-22T06:01:17.313Z,1025.11
2019-02-22T06:02:17.308Z,1025.14
2019-02-22T06:03:17.287Z,1025.20
2019-02-22T06:04:17.283Z,1025.22
2019-02-22T06:05:17.278Z,1025.23
2019-02-22T06:06:17.297Z,1025.28
2019-02-22T06:07:17.256Z,1025.35
2019-02-22T06:08:17.255Z,1025.39
2019-02-22T06:09:17.233Z,1025.44
2019-02-22T06:10:17.219Z,1025.52
2019-02-22T06:11:17.215Z,1025.49
2019-02-22T06:12:18.551Z,1025.55
2019-02-22T06:13:17.185Z,1025.60
2019-02-22T06:14:17.171Z,1025.62
2019-02-22T06:15:17.161Z,1025.78
2019-02-22T06:16:17.170Z,1025.69
2019-02-22T06:17:17.145Z,1025.77
2019-02-22T06:18:48.112Z,1025.87
2019-02-22T06:19:48.072Z,1025.88
2019-02-22T06:21:18.535Z,1025.87
2019-02-22T06:22:29.157Z,1025.96
2019-02-22T06:23:50.189Z,1025.99
2019-02-22T06:24:50.194Z,1025.92
2019-02-22T06:26:20.929Z,1025.99
2019-02-22T06:27:20.920Z,1025.99
2019-02-22T06:28:51.705Z,1026.02
2019-02-22T06:29:51.691Z,1026.08
2019-02-22T06:31:35.075Z,1026.11
2019-02-22T06:32:35.042Z,1026.15
2019-02-22T06:34:05.724Z,1026.17
2019-02-22T06:35:05.698Z,1026.16
2019-02-22T06:36:36.377Z,1026.26
2019-02-22T06:37:36.355Z,1026.22
2019-02-22T06:39:07.146Z,1026.29
2019-02-22T06:40:07.076Z,1026.29
2019-02-22T06:41:07.061Z,1026.32
2019-02-22T06:42:07.047Z,1026.36
2019-02-22T06:43:07.033Z,1026.38
2019-02-22T06:44:07.021Z,1026.42
2019-02-22T06:45:07.013Z,1026.54
2019-02-22T06:46:07.006Z,1026.59
2019-02-22T06:47:06.996Z,1026.58
2019-02-22T06:48:06.990Z,1026.62
2019-02-22T06:49:06.982Z,1026.56
2019-02-22T06:50:06.968Z,1026.65
2019-02-22T06:51:06.958Z,1026.69
2019-02-22T06:52:06.944Z,1026.66
2019-02-22T06:53:06.936Z,1026.75
2019-02-22T06:54:06.918Z,1026.78
2019-02-22T06:55:06.919Z,1026.77
2019-02-22T06:56:06.906Z,1026.88
2019-02-22T06:57:06.898Z,1026.89
2019-02-22T06:58:06.873Z,1026.95
2019-02-22T06:59:06.869Z,1027.01
2019-02-22T07:00:06.859Z,1026.94
2019-02-22T07:01:06.847Z,1027.01
2019-02-22T07:02:06.831Z,1027.07
2019-02-22T07:03:06.829Z,1027.11
2019-02-22T07:04:06.813Z,1027.13
2019-02-22T07:05:06.822Z,1027.12
2019-02-22T07:06:06.799Z,1027.13
2019-02-22T07:07:06.781Z,1027.12
2019-02-22T07:08:06.775Z,1027.17
2019-02-22T07:09:06.772Z,1027.24
2019-02-22T07:10:37.481Z,1027.21
2019-02-22T07:11:37.958Z,1027.14
2019-02-22T07:13:08.155Z,1027.22
2019-02-22T07:14:08.119Z,1027.29
2019-02-22T07:15:38.825Z,1027.31
2019-02-22T07:16:38.797Z,1027.27
2019-02-22T07:18:09.548Z,1027.41
2019-02-22T07:19:09.531Z,1027.42
2019-02-22T07:20:40.259Z,1027.51
2019-02-22T07:21:51.861Z,1027.59
2019-02-22T07:23:11.900Z,1027.58
2019-02-22T07:24:11.883Z,1027.67
2019-02-22T07:25:11.874Z,1027.62
2019-02-22T07:26:11.905Z,1027.69
2019-02-22T07:27:11.853Z,1027.69
2019-02-22T07:28:11.851Z,1027.80
2019-02-22T07:29:11.823Z,1027.76
2019-02-22T07:30:11.827Z,1027.79
2019-02-22T07:31:11.834Z,1027.84
2019-02-22T07:32:11.803Z,1027.81
2019-02-22T07:33:11.814Z,1027.85
2019-02-22T07:34:11.785Z,1027.96
2019-02-22T07:35:14.016Z,1028.04
2019-02-22T07:36:11.754Z,1028.00
2019-02-22T07:37:11.739Z,1028.06
2019-02-22T07:38:11.747Z,1028.13
2019-02-22T07:39:11.726Z,1028.11
2019-02-22T07:40:11.725Z,1028.19
2019-02-22T07:41:11.706Z,1028.15
2019-02-22T07:42:11.691Z,1028.21
2019-02-22T07:43:11.683Z,1028.25
2019-02-22T07:44:11.669Z,1028.29
2019-02-22T07:45:11.671Z,1028.31
2019-02-22T07:46:11.665Z,1028.44
2019-02-22T07:47:11.646Z,1028.40
2019-02-22T07:48:11.637Z,1028.41
2019-02-22T07:49:11.615Z,1028.53
2019-02-22T07:50:11.611Z,1028.44
2019-02-22T07:51:11.593Z,1028.56
2019-02-22T07:52:11.579Z,1028.52
2019-02-22T07:53:11.575Z,1028.70
2019-02-22T07:54:11.627Z,1029.11
2019-02-22T07:55:11.564Z,1029.13
2019-02-22T07:56:11.588Z,1029.12
2019-02-22T07:57:11.537Z,1029.15
2019-02-22T07:58:11.523Z,1029.16
2019-02-22T07:59:11.519Z,1029.04
2019-02-22T08:00:11.498Z,1028.54
2019-02-22T08:01:11.487Z,1028.65
2019-02-22T08:02:11.477Z,1028.62
2019-02-22T08:03:11.471Z,1028.75
2019-02-22T08:04:11.459Z,1028.82
2019-02-22T08:05:11.451Z,1028.85
2019-02-22T08:06:11.449Z,1028.93
2019-02-22T08:07:11.428Z,1029.06
2019-02-22T08:08:11.414Z,1029.07
2019-02-22T08:09:11.419Z,1029.14
2019-02-22T08:10:11.387Z,1029.09
2019-02-22T08:11:11.386Z,1029.16
2019-02-22T08:12:11.376Z,1029.20
2019-02-22T08:13:19.092Z,1029.20
2019-02-22T08:14:12.343Z,1029.28
2019-02-22T08:15:11.354Z,1029.42
2019-02-22T08:16:11.323Z,1029.31
2019-02-22T08:17:11.312Z,1029.37
2019-02-22T08:18:11.304Z,1029.36
2019-02-22T08:19:11.471Z,1029.34
2019-02-22T08:20:11.336Z,1029.28
2019-02-22T08:21:11.299Z,1029.38
2019-02-22T08:22:11.283Z,1029.42
2019-02-22T08:23:11.253Z,1029.44
2019-02-22T08:24:11.238Z,1029.51
2019-02-22T08:25:11.233Z,1029.53
2019-02-22T08:26:11.218Z,1029.59
2019-02-22T08:27:11.211Z,1029.76
2019-02-22T08:28:11.200Z,1029.70
2019-02-22T08:29:11.200Z,1029.74
2019-02-22T08:30:11.182Z,1029.76
2019-02-22T08:31:11.167Z,1029.77
2019-02-22T08:32:11.180Z,1029.76
2019-02-22T08:33:11.153Z,1029.76
2019-02-22T08:34:11.139Z,1029.74
2019-02-22T08:35:11.126Z,1029.78
2019-02-22T08:36:11.117Z,1029.78
2019-02-22T08:37:11.095Z,1029.85
2019-02-22T08:38:11.089Z,1029.92
2019-02-22T08:39:11.077Z,1029.89
2019-02-22T08:40:11.071Z,1029.87
2019-02-22T08:41:11.071Z,1029.92
2019-02-22T08:42:11.045Z,1029.91
2019-02-22T08:43:11.035Z,1029.94
2019-02-22T08:44:11.029Z,1029.93
2019-02-22T08:45:11.046Z,1029.97
2019-02-22T08:46:11.017Z,1030.03
2019-02-22T08:47:10.999Z,1029.98
2019-02-22T08:48:10.988Z,1030.00
2019-02-22T08:49:10.971Z,1030.10
2019-02-22T08:50:10.959Z,1030.02
2019-02-22T08:51:10.949Z,1030.15
2019-02-22T08:52:10.943Z,1030.14
2019-02-22T08:53:10.923Z,1030.17
2019-02-22T08:54:10.923Z,1030.18
2019-02-22T08:55:10.908Z,1030.22
2019-02-22T08:56:10.889Z,1030.19
2019-02-22T08:57:10.885Z,1030.20
2019-02-22T08:58:10.906Z,1030.18
2019-02-22T08:59:10.862Z,1030.26
2019-02-22T09:00:10.853Z,1030.35
2019-02-22T09:01:10.845Z,1030.38
2019-02-22T09:02:10.829Z,1030.33
2019-02-22T09:03:10.823Z,1030.44
2019-02-22T09:04:10.811Z,1030.38
2019-02-22T09:05:10.807Z,1030.46
2019-02-22T09:06:10.787Z,1030.53
2019-02-22T09:07:10.789Z,1030.47
2019-02-22T09:08:10.801Z,1030.52
2019-02-22T09:09:10.755Z,1030.54
2019-02-22T09:10:10.750Z,1030.55
2019-02-22T09:11:10.747Z,1030.59
2019-02-22T09:12:10.719Z,1030.63
2019-02-22T09:13:10.717Z,1030.63
2019-02-22T09:14:10.703Z,1030.62
2019-02-22T09:15:10.694Z,1030.69
2019-02-22T09:16:10.689Z,1030.66
2019-02-22T09:17:10.693Z,1030.67
2019-02-22T09:18:10.655Z,1030.68
2019-02-22T09:19:10.650Z,1030.69
2019-02-22T09:20:10.653Z,1030.75
2019-02-22T09:21:10.635Z,1030.79
2019-02-22T09:22:21.836Z,1030.69
2019-02-22T09:23:11.603Z,1030.73
2019-02-22T09:24:10.599Z,1030.77
2019-02-22T09:25:10.593Z,1030.78
2019-02-22T09:26:10.587Z,1030.81
2019-02-22T09:27:10.585Z,1031.04
2019-02-22T09:28:10.571Z,1030.82
2019-02-22T09:29:10.545Z,1031.13
2019-02-22T09:30:10.532Z,1030.97
2019-02-22T09:31:10.547Z,1031.36
2019-02-22T09:32:10.507Z,1031.35
2019-02-22T09:33:10.501Z,1031.29
2019-02-22T09:34:10.486Z,1031.14
2019-02-22T09:35:10.471Z,1031.12
2019-02-22T09:36:10.464Z,1031.15
2019-02-22T09:37:10.467Z,1031.15
2019-02-22T09:38:10.447Z,1031.31
2019-02-22T09:39:10.448Z,1031.28
2019-02-22T09:40:10.425Z,1031.32
2019-02-22T09:41:10.415Z,1031.34
2019-02-22T09:42:10.405Z,1031.28
2019-02-22T09:43:10.420Z,1031.34
2019-02-22T09:44:10.387Z,1031.20
2019-02-22T09:45:10.384Z,1031.37
2019-02-22T09:46:10.356Z,1031.53
2019-02-22T09:47:10.344Z,1031.49
2019-02-22T09:48:10.334Z,1031.48
2019-02-22T09:49:10.326Z,1031.51
2019-02-22T09:50:10.329Z,1031.32
2019-02-22T09:51:10.338Z,1031.54
2019-02-22T09:52:10.290Z,1031.59
2019-02-22T09:53:10.285Z,1031.36
2019-02-22T09:54:10.290Z,1031.48
2019-02-22T09:55:10.274Z,1031.47
2019-02-22T09:56:10.309Z,1031.31
2019-02-22T09:57:10.263Z,1031.33
2019-02-22T09:58:10.231Z,1031.54
2019-02-22T09:59:10.218Z,1031.64
2019-02-22T10:00:10.206Z,1031.68
2019-02-22T10:01:10.200Z,1031.69
2019-02-22T10:02:10.258Z,1031.62
2019-02-22T10:03:10.187Z,1031.63
2019-02-22T10:04:10.159Z,1031.51
2019-02-22T10:05:10.153Z,1031.47
2019-02-22T10:06:10.157Z,1031.40
2019-02-22T10:07:10.139Z,1031.43
2019-02-22T10:08:10.121Z,1031.52
2019-02-22T10:09:10.119Z,1031.59
2019-02-22T10:10:10.098Z,1031.54
2019-02-22T10:11:10.090Z,1031.68
2019-02-22T10:12:10.073Z,1031.69
2019-02-22T10:13:10.067Z,1031.69
2019-02-22T10:14:10.061Z,1031.69
2019-02-22T10:15:10.047Z,1031.71
2019-02-22T10:16:10.033Z,1031.68
2019-02-22T10:17:10.024Z,1031.71
2019-02-22T10:18:10.019Z,1031.69
2019-02-22T10:19:10.005Z,1031.65
2019-02-22T10:20:10.003Z,1031.67
2019-02-22T10:21:09.992Z,1031.86
2019-02-22T10:22:09.969Z,1031.85
2019-02-22T10:23:09.971Z,1031.93
2019-02-22T10:24:09.948Z,1031.94
2019-02-22T10:25:09.955Z,1031.94
2019-02-22T10:26:09.925Z,1031.97
2019-02-22T10:27:12.042Z,1032.01
2019-02-22T10:28:17.246Z,1032.04
2019-02-22T10:29:10.900Z,1032.08
2019-02-22T10:30:09.913Z,1032.12
2019-02-22T10:31:09.871Z,1032.09
2019-02-22T10:32:09.855Z,1032.13
2019-02-22T10:33:09.852Z,1032.01
2019-02-22T10:34:09.859Z,1031.98
2019-02-22T10:35:09.836Z,1031.96
2019-02-22T10:36:09.832Z,1031.92
2019-02-22T10:37:09.804Z,1031.87
2019-02-22T10:38:09.795Z,1031.86
2019-02-22T10:39:09.793Z,1031.72
2019-02-22T10:40:09.777Z,1031.71
2019-02-22T10:41:09.770Z,1031.67
2019-02-22T10:42:09.769Z,1031.70
2019-02-22T10:43:09.759Z,1031.59
2019-02-22T10:44:17.393Z,1031.48
2019-02-22T10:45:10.726Z,1031.39
2019-02-22T10:46:09.720Z,1031.41
2019-02-22T10:47:09.705Z,1031.52
2019-02-22T10:48:09.689Z,1031.43
2019-02-22T10:49:09.683Z,1031.49
2019-02-22T10:50:09.670Z,1031.52
2019-02-22T10:51:09.668Z,1031.52
2019-02-22T10:52:09.651Z,1031.60
2019-02-22T10:53:09.671Z,1031.62
2019-02-22T10:54:09.641Z,1031.62
2019-02-22T10:55:09.618Z,1031.67
2019-02-22T10:56:09.608Z,1031.65
2019-02-22T10:57:09.593Z,1031.73
2019-02-22T10:58:09.597Z,1031.70
2019-02-22T10:59:09.580Z,1031.78
2019-02-22T11:00:09.557Z,1031.86
2019-02-22T11:01:09.551Z,1031.87
2019-02-22T11:02:09.540Z,1031.82
2019-02-22T11:03:09.527Z,1031.77
2019-02-22T11:04:09.534Z,1031.70
2019-02-22T11:05:09.504Z,1031.73
2019-02-22T11:06:09.510Z,1031.78
2019-02-22T11:07:09.479Z,1031.83
2019-02-22T11:08:09.475Z,1031.84
2019-02-22T11:09:09.468Z,1031.85
2019-02-22T11:10:09.465Z,1031.73
2019-02-22T11:11:09.445Z,1031.78
2019-02-22T11:12:09.433Z,1031.75
2019-02-22T11:13:09.415Z,1031.81
2019-02-22T11:14:09.405Z,1031.75
2019-02-22T11:15:09.401Z,1031.72
2019-02-22T11:16:09.383Z,1031.81
2019-02-22T11:17:09.371Z,1031.80
2019-02-22T11:18:09.366Z,1031.80
2019-02-22T11:19:09.353Z,1031.76
2019-02-22T11:20:09.351Z,1031.74
2019-02-22T11:21:09.341Z,1031.83
2019-02-22T11:22:09.327Z,1031.79
2019-02-22T11:23:09.303Z,1031.79
2019-02-22T11:24:09.292Z,1031.83
2019-02-22T11:25:09.285Z,1031.73
2019-02-22T11:26:09.271Z,1031.85
2019-02-22T11:27:09.255Z,1031.82
2019-02-22T11:28:09.251Z,1031.78
2019-02-22T11:29:09.253Z,1031.78
2019-02-22T11:30:09.234Z,1031.91
2019-02-22T11:31:09.218Z,1031.83
2019-02-22T11:32:09.217Z,1031.86
2019-02-22T11:33:09.199Z,1031.93
2019-02-22T11:34:09.181Z,1031.89
2019-02-22T11:35:09.181Z,1031.89
2019-02-22T11:36:09.175Z,1031.96
2019-02-22T11:37:09.154Z,1031.97
2019-02-22T11:38:09.156Z,1032.04
2019-02-22T11:39:09.157Z,1032.02
2019-02-22T11:40:09.124Z,1032.11
2019-02-22T11:41:09.143Z,1032.22
2019-02-22T11:42:09.113Z,1032.21
2019-02-22T11:43:09.084Z,1032.16
2019-02-22T11:44:09.081Z,1032.23
2019-02-22T11:45:09.073Z,1032.16
2019-02-22T11:46:09.057Z,1032.23
2019-02-22T11:47:09.057Z,1032.25
2019-02-22T11:48:09.636Z,1032.26
2019-02-22T11:49:09.035Z,1032.21
2019-02-22T11:50:09.010Z,1032.24
2019-02-22T11:51:09.006Z,1032.30
2019-02-22T11:52:09.029Z,1032.20
2019-02-22T11:53:08.983Z,1032.34
2019-02-22T11:54:09.001Z,1032.25
2019-02-22T11:55:08.963Z,1032.35
2019-02-22T11:56:08.945Z,1032.31
2019-02-22T11:57:08.940Z,1032.29
2019-02-22T11:58:08.923Z,1032.28
2019-02-22T11:59:08.915Z,1032.35
2019-02-22T12:00:08.908Z,1032.33
2019-02-22T12:01:08.930Z,1032.32
2019-02-22T12:02:08.885Z,1032.33
2019-02-22T12:03:21.411Z,1032.36
2019-02-22T12:04:09.856Z,1032.43
2019-02-22T12:05:08.867Z,1032.53
2019-02-22T12:06:08.841Z,1032.42
2019-02-22T12:07:08.855Z,1032.47
2019-02-22T12:08:08.817Z,1032.48
2019-02-22T12:09:08.809Z,1032.50
2019-02-22T12:10:08.803Z,1032.50
2019-02-22T12:11:08.796Z,1032.45
2019-02-22T12:12:08.776Z,1032.45
2019-02-22T12:13:08.769Z,1032.46
2019-02-22T12:14:08.755Z,1032.48
2019-02-22T12:15:08.741Z,1032.55